sensor_id;sensor_type;location;lat;lon;timestamp;P1;durP1;ratioP1;P2;durP2;ratioP2
80101;SDS011;69407;44.966;19.622;2023-05-31T00:01:12;2.67;;;1.52;;
80101;SDS011;69407;44.966;19.622;2023-05-31T00:03:38;5.55;;;1.55;;
80101;SDS011;69407;44.966;19.622;2023-05-31T00:06:06;3.90;;;1.70;;
80101;SDS011;69407;44.966;19.622;2023-05-31T00:08:32;3.08;;;1.55;;
80101;SDS011;69407;44.966;19.622;2023-05-31T00:10:58;6.45;;;2.20;;
80101;SDS011;69407;44.966;19.622;2023-05-31T00:13:23;3.17;;;1.20;;
80101;SDS011;69407;44.966;19.622;2023-05-31T00:15:49;3.33;;;1.52;;
80101;SDS011;69407;44.966;19.622;2023-05-31T00:18:14;3.78;;;2.03;;
80101;SDS011;69407;44.966;19.622;2023-05-31T00:20:40;2.75;;;1.67;;
80101;SDS011;69407;44.966;19.622;2023-05-31T00:23:05;3.38;;;1.73;;
80101;SDS011;69407;44.966;19.622;2023-05-31T00:25:31;3.63;;;1.80;;
80101;SDS011;69407;44.966;19.622;2023-05-31T00:27:56;3.55;;;1.90;;
80101;SDS011;69407;44.966;19.622;2023-05-31T00:30:22;3.53;;;1.40;;
80101;SDS011;69407;44.966;19.622;2023-05-31T00:32:47;5.07;;;1.63;;
80101;SDS011;69407;44.966;19.622;2023-05-31T00:35:13;3.63;;;1.55;;
80101;SDS011;69407;44.966;19.622;2023-05-31T00:37:38;5.82;;;1.75;;
80101;SDS011;69407;44.966;19.622;2023-05-31T00:40:04;3.13;;;1.48;;
80101;SDS011;69407;44.966;19.622;2023-05-31T00:42:31;4.18;;;1.88;;
80101;SDS011;69407;44.966;19.622;2023-05-31T00:44:57;4.47;;;2.20;;
80101;SDS011;69407;44.966;19.622;2023-05-31T00:47:23;3.25;;;1.50;;
80101;SDS011;69407;44.966;19.622;2023-05-31T00:52:16;4.15;;;1.40;;
80101;SDS011;69407;44.966;19.622;2023-05-31T00:54:42;4.03;;;2.00;;
80101;SDS011;69407;44.966;19.622;2023-05-31T00:57:08;4.30;;;1.88;;
80101;SDS011;69407;44.966;19.622;2023-05-31T00:59:34;3.55;;;1.75;;
80101;SDS011;69407;44.966;19.622;2023-05-31T01:01:59;4.75;;;2.28;;
80101;SDS011;69407;44.966;19.622;2023-05-31T01:04:28;4.22;;;1.52;;
80101;SDS011;69407;44.966;19.622;2023-05-31T01:06:55;3.90;;;2.05;;
80101;SDS011;69407;44.966;19.622;2023-05-31T01:09:21;4.07;;;1.90;;
80101;SDS011;69407;44.966;19.622;2023-05-31T01:20:08;3.95;;;2.00;;
80101;SDS011;69407;44.966;19.622;2023-05-31T01:25:24;4.35;;;1.85;;
80101;SDS011;69407;44.966;19.622;2023-05-31T01:27:56;3.65;;;1.92;;
80101;SDS011;69407;44.966;19.622;2023-05-31T01:30:24;3.53;;;1.70;;
80101;SDS011;69407;44.966;19.622;2023-05-31T01:32:53;4.40;;;2.08;;
80101;SDS011;69407;44.966;19.622;2023-05-31T01:35:22;4.43;;;2.33;;
80101;SDS011;69407;44.966;19.622;2023-05-31T01:37:48;3.13;;;1.95;;
80101;SDS011;69407;44.966;19.622;2023-05-31T01:40:13;3.42;;;1.80;;
80101;SDS011;69407;44.966;19.622;2023-05-31T01:42:43;5.78;;;2.47;;
80101;SDS011;69407;44.966;19.622;2023-05-31T01:45:11;3.63;;;1.45;;
80101;SDS011;69407;44.966;19.622;2023-05-31T01:47:39;2.63;;;1.52;;
80101;SDS011;69407;44.966;19.622;2023-05-31T01:50:09;3.05;;;1.83;;
80101;SDS011;69407;44.966;19.622;2023-05-31T01:52:37;4.75;;;1.63;;
80101;SDS011;69407;44.966;19.622;2023-05-31T01:55:03;2.90;;;1.55;;
80101;SDS011;69407;44.966;19.622;2023-05-31T01:57:29;4.80;;;2.35;;
80101;SDS011;69407;44.966;19.622;2023-05-31T01:59:57;4.75;;;2.50;;
80101;SDS011;69407;44.966;19.622;2023-05-31T02:02:24;4.20;;;2.33;;
80101;SDS011;69407;44.966;19.622;2023-05-31T02:04:52;4.18;;;2.15;;
80101;SDS011;69407;44.966;19.622;2023-05-31T02:07:39;4.60;;;1.77;;
80101;SDS011;69407;44.966;19.622;2023-05-31T02:10:06;4.72;;;2.45;;
80101;SDS011;69407;44.966;19.622;2023-05-31T02:12:32;5.50;;;1.80;;
80101;SDS011;69407;44.966;19.622;2023-05-31T02:14:58;4.60;;;2.08;;
80101;SDS011;69407;44.966;19.622;2023-05-31T02:17:23;5.03;;;2.78;;
80101;SDS011;69407;44.966;19.622;2023-05-31T02:19:53;4.47;;;2.13;;
80101;SDS011;69407;44.966;19.622;2023-05-31T02:22:21;7.63;;;2.08;;
80101;SDS011;69407;44.966;19.622;2023-05-31T02:24:47;6.97;;;2.63;;
80101;SDS011;69407;44.966;19.622;2023-05-31T02:27:13;4.13;;;2.10;;
80101;SDS011;69407;44.966;19.622;2023-05-31T02:29:39;3.30;;;1.80;;
80101;SDS011;69407;44.966;19.622;2023-05-31T02:32:06;4.35;;;1.67;;
80101;SDS011;69407;44.966;19.622;2023-05-31T02:34:31;3.47;;;1.70;;
80101;SDS011;69407;44.966;19.622;2023-05-31T02:36:59;6.20;;;2.15;;
80101;SDS011;69407;44.966;19.622;2023-05-31T02:39:25;4.63;;;1.63;;
80101;SDS011;69407;44.966;19.622;2023-05-31T02:41:50;3.25;;;1.65;;
80101;SDS011;69407;44.966;19.622;2023-05-31T02:44:16;5.28;;;1.52;;
80101;SDS011;69407;44.966;19.622;2023-05-31T02:46:41;5.78;;;1.88;;
80101;SDS011;69407;44.966;19.622;2023-05-31T02:49:07;7.75;;;1.60;;
80101;SDS011;69407;44.966;19.622;2023-05-31T02:51:32;3.97;;;1.27;;
80101;SDS011;69407;44.966;19.622;2023-05-31T02:53:58;2.50;;;1.48;;
80101;SDS011;69407;44.966;19.622;2023-05-31T02:56:24;4.18;;;1.67;;
80101;SDS011;69407;44.966;19.622;2023-05-31T02:58:51;2.75;;;1.45;;
80101;SDS011;69407;44.966;19.622;2023-05-31T03:01:16;5.68;;;1.60;;
80101;SDS011;69407;44.966;19.622;2023-05-31T03:03:42;5.63;;;1.77;;
80101;SDS011;69407;44.966;19.622;2023-05-31T03:06:07;4.60;;;1.58;;
80101;SDS011;69407;44.966;19.622;2023-05-31T03:08:33;6.40;;;1.38;;
80101;SDS011;69407;44.966;19.622;2023-05-31T03:10:58;2.95;;;1.40;;
80101;SDS011;69407;44.966;19.622;2023-05-31T03:13:24;2.88;;;1.60;;
80101;SDS011;69407;44.966;19.622;2023-05-31T03:15:49;5.03;;;1.42;;
80101;SDS011;69407;44.966;19.622;2023-05-31T03:18:15;3.63;;;1.50;;
80101;SDS011;69407;44.966;19.622;2023-05-31T03:20:40;5.55;;;2.20;;
80101;SDS011;69407;44.966;19.622;2023-05-31T03:23:06;3.55;;;1.63;;
80101;SDS011;69407;44.966;19.622;2023-05-31T03:25:34;3.50;;;1.90;;
80101;SDS011;69407;44.966;19.622;2023-05-31T03:28:00;5.70;;;1.85;;
80101;SDS011;69407;44.966;19.622;2023-05-31T03:30:25;5.68;;;1.73;;
80101;SDS011;69407;44.966;19.622;2023-05-31T03:32:51;4.25;;;1.90;;
80101;SDS011;69407;44.966;19.622;2023-05-31T03:35:16;4.50;;;1.58;;
80101;SDS011;69407;44.966;19.622;2023-05-31T03:37:42;4.25;;;1.60;;
80101;SDS011;69407;44.966;19.622;2023-05-31T03:40:08;4.60;;;1.63;;
80101;SDS011;69407;44.966;19.622;2023-05-31T03:42:34;4.05;;;1.60;;
80101;SDS011;69407;44.966;19.622;2023-05-31T03:45:00;5.18;;;1.80;;
80101;SDS011;69407;44.966;19.622;2023-05-31T03:47:26;2.70;;;1.38;;
80101;SDS011;69407;44.966;19.622;2023-05-31T03:49:52;3.28;;;1.60;;
80101;SDS011;69407;44.966;19.622;2023-05-31T03:52:17;8.20;;;4.82;;
80101;SDS011;69407;44.966;19.622;2023-05-31T03:54:43;4.22;;;2.15;;
80101;SDS011;69407;44.966;19.622;2023-05-31T03:57:08;4.47;;;1.95;;
80101;SDS011;69407;44.966;19.622;2023-05-31T03:59:34;4.32;;;2.50;;
80101;SDS011;69407;44.966;19.622;2023-05-31T04:02:00;6.07;;;1.73;;
80101;SDS011;69407;44.966;19.622;2023-05-31T04:04:25;5.10;;;2.05;;
80101;SDS011;69407;44.966;19.622;2023-05-31T04:06:52;5.57;;;1.92;;
80101;SDS011;69407;44.966;19.622;2023-05-31T04:09:17;5.65;;;2.22;;
80101;SDS011;69407;44.966;19.622;2023-05-31T04:11:43;4.88;;;1.70;;
80101;SDS011;69407;44.966;19.622;2023-05-31T04:14:08;4.10;;;1.90;;
80101;SDS011;69407;44.966;19.622;2023-05-31T04:16:34;3.38;;;2.00;;
80101;SDS011;69407;44.966;19.622;2023-05-31T04:18:59;7.45;;;2.20;;
80101;SDS011;69407;44.966;19.622;2023-05-31T04:21:25;4.63;;;1.80;;
80101;SDS011;69407;44.966;19.622;2023-05-31T04:23:51;5.63;;;2.00;;
80101;SDS011;69407;44.966;19.622;2023-05-31T04:26:17;5.78;;;2.40;;
80101;SDS011;69407;44.966;19.622;2023-05-31T04:28:45;4.85;;;2.13;;
80101;SDS011;69407;44.966;19.622;2023-05-31T04:31:18;3.45;;;2.30;;
80101;SDS011;69407;44.966;19.622;2023-05-31T04:33:45;5.07;;;2.03;;
80101;SDS011;69407;44.966;19.622;2023-05-31T04:36:11;4.53;;;2.28;;
80101;SDS011;69407;44.966;19.622;2023-05-31T04:38:37;4.25;;;2.75;;
80101;SDS011;69407;44.966;19.622;2023-05-31T04:41:04;7.30;;;3.95;;
80101;SDS011;69407;44.966;19.622;2023-05-31T04:43:30;9.98;;;4.88;;
80101;SDS011;69407;44.966;19.622;2023-05-31T04:45:55;9.13;;;4.75;;
80101;SDS011;69407;44.966;19.622;2023-05-31T04:48:22;6.43;;;3.20;;
80101;SDS011;69407;44.966;19.622;2023-05-31T04:50:48;6.65;;;3.50;;
80101;SDS011;69407;44.966;19.622;2023-05-31T04:53:14;6.00;;;2.60;;
80101;SDS011;69407;44.966;19.622;2023-05-31T04:55:40;6.35;;;2.60;;
80101;SDS011;69407;44.966;19.622;2023-05-31T04:58:06;5.13;;;2.53;;
80101;SDS011;69407;44.966;19.622;2023-05-31T05:00:33;5.00;;;2.72;;
80101;SDS011;69407;44.966;19.622;2023-05-31T05:02:59;4.97;;;2.35;;
80101;SDS011;69407;44.966;19.622;2023-05-31T05:05:25;5.20;;;2.72;;
80101;SDS011;69407;44.966;19.622;2023-05-31T05:07:51;5.95;;;2.70;;
80101;SDS011;69407;44.966;19.622;2023-05-31T05:10:17;5.22;;;2.50;;
80101;SDS011;69407;44.966;19.622;2023-05-31T05:12:42;6.70;;;3.00;;
80101;SDS011;69407;44.966;19.622;2023-05-31T05:15:08;5.30;;;2.65;;
80101;SDS011;69407;44.966;19.622;2023-05-31T05:17:35;4.63;;;2.53;;
80101;SDS011;69407;44.966;19.622;2023-05-31T05:20:01;5.28;;;3.17;;
80101;SDS011;69407;44.966;19.622;2023-05-31T05:22:28;5.65;;;3.15;;
80101;SDS011;69407;44.966;19.622;2023-05-31T05:24:53;5.63;;;2.95;;
80101;SDS011;69407;44.966;19.622;2023-05-31T05:27:19;6.20;;;2.72;;
80101;SDS011;69407;44.966;19.622;2023-05-31T05:29:46;11.10;;;3.38;;
80101;SDS011;69407;44.966;19.622;2023-05-31T05:32:12;4.35;;;2.65;;
80101;SDS011;69407;44.966;19.622;2023-05-31T05:34:38;4.80;;;2.55;;
80101;SDS011;69407;44.966;19.622;2023-05-31T05:37:04;4.95;;;2.97;;
80101;SDS011;69407;44.966;19.622;2023-05-31T05:39:30;5.57;;;2.72;;
80101;SDS011;69407;44.966;19.622;2023-05-31T05:41:56;4.78;;;2.78;;
80101;SDS011;69407;44.966;19.622;2023-05-31T05:44:21;6.97;;;2.75;;
80101;SDS011;69407;44.966;19.622;2023-05-31T05:46:47;6.47;;;2.80;;
80101;SDS011;69407;44.966;19.622;2023-05-31T05:49:12;4.68;;;2.67;;
80101;SDS011;69407;44.966;19.622;2023-05-31T05:51:38;6.22;;;3.00;;
80101;SDS011;69407;44.966;19.622;2023-05-31T05:54:03;6.10;;;2.70;;
80101;SDS011;69407;44.966;19.622;2023-05-31T05:56:29;5.60;;;2.55;;
80101;SDS011;69407;44.966;19.622;2023-05-31T05:58:54;5.15;;;2.95;;
80101;SDS011;69407;44.966;19.622;2023-05-31T06:01:20;5.97;;;2.90;;
80101;SDS011;69407;44.966;19.622;2023-05-31T06:03:46;4.45;;;2.55;;
80101;SDS011;69407;44.966;19.622;2023-05-31T06:06:13;5.70;;;3.08;;
80101;SDS011;69407;44.966;19.622;2023-05-31T06:08:39;5.63;;;2.85;;
80101;SDS011;69407;44.966;19.622;2023-05-31T06:11:04;5.28;;;2.95;;
80101;SDS011;69407;44.966;19.622;2023-05-31T06:13:30;6.53;;;3.17;;
80101;SDS011;69407;44.966;19.622;2023-05-31T06:15:55;7.95;;;4.05;;
80101;SDS011;69407;44.966;19.622;2023-05-31T06:18:21;6.63;;;3.10;;
80101;SDS011;69407;44.966;19.622;2023-05-31T06:20:46;5.78;;;3.30;;
80101;SDS011;69407;44.966;19.622;2023-05-31T06:23:12;6.95;;;3.42;;
80101;SDS011;69407;44.966;19.622;2023-05-31T06:25:37;6.32;;;3.25;;
80101;SDS011;69407;44.966;19.622;2023-05-31T06:28:02;5.40;;;2.92;;
80101;SDS011;69407;44.966;19.622;2023-05-31T06:30:29;7.50;;;3.90;;
80101;SDS011;69407;44.966;19.622;2023-05-31T06:32:54;6.95;;;3.60;;
80101;SDS011;69407;44.966;19.622;2023-05-31T06:35:20;5.30;;;3.67;;
80101;SDS011;69407;44.966;19.622;2023-05-31T06:37:47;6.72;;;3.97;;
80101;SDS011;69407;44.966;19.622;2023-05-31T06:40:13;6.97;;;4.18;;
80101;SDS011;69407;44.966;19.622;2023-05-31T06:42:39;6.68;;;3.38;;
80101;SDS011;69407;44.966;19.622;2023-05-31T06:45:05;7.00;;;3.88;;
80101;SDS011;69407;44.966;19.622;2023-05-31T06:47:31;5.40;;;3.83;;
80101;SDS011;69407;44.966;19.622;2023-05-31T06:49:57;6.50;;;4.03;;
80101;SDS011;69407;44.966;19.622;2023-05-31T06:52:23;6.97;;;3.90;;
80101;SDS011;69407;44.966;19.622;2023-05-31T06:54:49;6.38;;;3.97;;
80101;SDS011;69407;44.966;19.622;2023-05-31T06:57:14;5.47;;;3.97;;
80101;SDS011;69407;44.966;19.622;2023-05-31T06:59:40;6.60;;;3.97;;
80101;SDS011;69407;44.966;19.622;2023-05-31T07:02:06;6.38;;;4.05;;
80101;SDS011;69407;44.966;19.622;2023-05-31T07:04:31;5.80;;;3.85;;
80101;SDS011;69407;44.966;19.622;2023-05-31T07:06:57;8.00;;;4.43;;
80101;SDS011;69407;44.966;19.622;2023-05-31T07:09:22;8.98;;;4.85;;
80101;SDS011;69407;44.966;19.622;2023-05-31T07:11:48;8.98;;;3.90;;
80101;SDS011;69407;44.966;19.622;2023-05-31T07:14:13;7.13;;;4.53;;
80101;SDS011;69407;44.966;19.622;2023-05-31T07:16:39;7.50;;;4.57;;
80101;SDS011;69407;44.966;19.622;2023-05-31T07:19:04;9.13;;;4.72;;
80101;SDS011;69407;44.966;19.622;2023-05-31T07:21:30;7.05;;;4.28;;
80101;SDS011;69407;44.966;19.622;2023-05-31T07:23:56;7.22;;;4.45;;
80101;SDS011;69407;44.966;19.622;2023-05-31T07:26:21;7.68;;;4.05;;
80101;SDS011;69407;44.966;19.622;2023-05-31T07:28:48;7.72;;;4.45;;
80101;SDS011;69407;44.966;19.622;2023-05-31T07:31:13;7.28;;;4.22;;
80101;SDS011;69407;44.966;19.622;2023-05-31T07:33:40;6.25;;;3.83;;
80101;SDS011;69407;44.966;19.622;2023-05-31T07:36:06;8.75;;;3.97;;
80101;SDS011;69407;44.966;19.622;2023-05-31T07:38:32;8.52;;;4.32;;
80101;SDS011;69407;44.966;19.622;2023-05-31T07:40:57;7.57;;;4.13;;
80101;SDS011;69407;44.966;19.622;2023-05-31T07:43:23;7.03;;;4.47;;
80101;SDS011;69407;44.966;19.622;2023-05-31T07:45:49;8.57;;;4.88;;
80101;SDS011;69407;44.966;19.622;2023-05-31T07:48:18;8.23;;;4.55;;
80101;SDS011;69407;44.966;19.622;2023-05-31T07:50:44;8.05;;;4.32;;
80101;SDS011;69407;44.966;19.622;2023-05-31T07:53:10;11.02;;;7.00;;
80101;SDS011;69407;44.966;19.622;2023-05-31T07:55:36;8.00;;;4.75;;
80101;SDS011;69407;44.966;19.622;2023-05-31T07:58:02;9.60;;;5.32;;
80101;SDS011;69407;44.966;19.622;2023-05-31T08:00:28;8.55;;;4.72;;
80101;SDS011;69407;44.966;19.622;2023-05-31T08:02:54;10.60;;;5.65;;
80101;SDS011;69407;44.966;19.622;2023-05-31T08:05:19;9.77;;;4.90;;
80101;SDS011;69407;44.966;19.622;2023-05-31T08:07:45;5.55;;;4.30;;
80101;SDS011;69407;44.966;19.622;2023-05-31T08:10:12;8.10;;;5.32;;
80101;SDS011;69407;44.966;19.622;2023-05-31T08:12:37;7.80;;;4.55;;
80101;SDS011;69407;44.966;19.622;2023-05-31T08:15:03;8.45;;;4.65;;
80101;SDS011;69407;44.966;19.622;2023-05-31T08:17:29;15.38;;;5.82;;
80101;SDS011;69407;44.966;19.622;2023-05-31T08:19:55;9.75;;;4.45;;
80101;SDS011;69407;44.966;19.622;2023-05-31T08:22:20;7.65;;;4.78;;
80101;SDS011;69407;44.966;19.622;2023-05-31T08:24:46;8.80;;;4.70;;
80101;SDS011;69407;44.966;19.622;2023-05-31T08:27:11;9.10;;;4.68;;
80101;SDS011;69407;44.966;19.622;2023-05-31T08:29:37;7.53;;;5.03;;
80101;SDS011;69407;44.966;19.622;2023-05-31T08:32:03;6.43;;;4.60;;
80101;SDS011;69407;44.966;19.622;2023-05-31T08:34:29;7.70;;;4.90;;
80101;SDS011;69407;44.966;19.622;2023-05-31T08:36:54;9.38;;;4.43;;
80101;SDS011;69407;44.966;19.622;2023-05-31T08:39:20;7.20;;;5.03;;
80101;SDS011;69407;44.966;19.622;2023-05-31T08:41:58;9.13;;;5.45;;
80101;SDS011;69407;44.966;19.622;2023-05-31T08:44:28;9.38;;;4.53;;
80101;SDS011;69407;44.966;19.622;2023-05-31T08:47:19;7.65;;;5.13;;
80101;SDS011;69407;44.966;19.622;2023-05-31T08:49:47;10.38;;;5.18;;
80101;SDS011;69407;44.966;19.622;2023-05-31T08:52:13;9.95;;;6.80;;
80101;SDS011;69407;44.966;19.622;2023-05-31T08:54:39;12.25;;;7.10;;
80101;SDS011;69407;44.966;19.622;2023-05-31T08:57:05;9.70;;;5.35;;
80101;SDS011;69407;44.966;19.622;2023-05-31T08:59:30;9.50;;;5.68;;
80101;SDS011;69407;44.966;19.622;2023-05-31T09:01:58;9.93;;;5.80;;
80101;SDS011;69407;44.966;19.622;2023-05-31T09:04:25;10.30;;;5.70;;
80101;SDS011;69407;44.966;19.622;2023-05-31T09:06:51;7.05;;;4.80;;
80101;SDS011;69407;44.966;19.622;2023-05-31T09:09:17;7.57;;;5.00;;
80101;SDS011;69407;44.966;19.622;2023-05-31T09:11:44;9.40;;;5.45;;
80101;SDS011;69407;44.966;19.622;2023-05-31T09:14:10;9.50;;;5.70;;
80101;SDS011;69407;44.966;19.622;2023-05-31T09:16:35;11.05;;;5.97;;
80101;SDS011;69407;44.966;19.622;2023-05-31T09:19:01;8.95;;;6.00;;
80101;SDS011;69407;44.966;19.622;2023-05-31T09:21:28;7.10;;;4.78;;
80101;SDS011;69407;44.966;19.622;2023-05-31T09:23:55;11.90;;;5.20;;
80101;SDS011;69407;44.966;19.622;2023-05-31T09:26:22;7.63;;;5.55;;
80101;SDS011;69407;44.966;19.622;2023-05-31T09:28:51;10.00;;;5.57;;
80101;SDS011;69407;44.966;19.622;2023-05-31T09:31:17;7.82;;;5.20;;
80101;SDS011;69407;44.966;19.622;2023-05-31T09:33:44;11.13;;;5.55;;
80101;SDS011;69407;44.966;19.622;2023-05-31T09:36:12;8.55;;;5.05;;
80101;SDS011;69407;44.966;19.622;2023-05-31T09:38:39;8.48;;;4.93;;
80101;SDS011;69407;44.966;19.622;2023-05-31T09:41:20;8.55;;;5.38;;
80101;SDS011;69407;44.966;19.622;2023-05-31T09:43:46;9.43;;;5.53;;
80101;SDS011;69407;44.966;19.622;2023-05-31T09:46:13;10.18;;;6.05;;
80101;SDS011;69407;44.966;19.622;2023-05-31T09:48:41;8.40;;;5.32;;
80101;SDS011;69407;44.966;19.622;2023-05-31T09:51:07;9.80;;;5.47;;
80101;SDS011;69407;44.966;19.622;2023-05-31T09:53:41;9.48;;;5.53;;
80101;SDS011;69407;44.966;19.622;2023-05-31T09:56:08;10.45;;;6.32;;
80101;SDS011;69407;44.966;19.622;2023-05-31T09:58:56;7.80;;;5.70;;
80101;SDS011;69407;44.966;19.622;2023-05-31T10:01:22;9.60;;;5.53;;
80101;SDS011;69407;44.966;19.622;2023-05-31T10:03:48;8.73;;;5.45;;
80101;SDS011;69407;44.966;19.622;2023-05-31T10:06:18;10.05;;;5.80;;
80101;SDS011;69407;44.966;19.622;2023-05-31T10:08:44;8.15;;;5.47;;
80101;SDS011;69407;44.966;19.622;2023-05-31T10:11:11;10.25;;;5.30;;
80101;SDS011;69407;44.966;19.622;2023-05-31T10:13:41;8.23;;;6.10;;
80101;SDS011;69407;44.966;19.622;2023-05-31T10:16:10;7.30;;;5.35;;
80101;SDS011;69407;44.966;19.622;2023-05-31T10:18:36;8.38;;;5.50;;
80101;SDS011;69407;44.966;19.622;2023-05-31T10:21:09;7.88;;;4.93;;
80101;SDS011;69407;44.966;19.622;2023-05-31T10:23:43;9.05;;;5.65;;
80101;SDS011;69407;44.966;19.622;2023-05-31T10:26:12;9.13;;;5.95;;
80101;SDS011;69407;44.966;19.622;2023-05-31T10:29:04;8.70;;;5.40;;
80101;SDS011;69407;44.966;19.622;2023-05-31T10:31:45;10.45;;;6.47;;
80101;SDS011;69407;44.966;19.622;2023-05-31T10:34:24;11.15;;;6.47;;
80101;SDS011;69407;44.966;19.622;2023-05-31T10:36:51;9.18;;;6.15;;
80101;SDS011;69407;44.966;19.622;2023-05-31T10:42:25;8.57;;;5.65;;
80101;SDS011;69407;44.966;19.622;2023-05-31T10:47:35;11.10;;;7.45;;
80101;SDS011;69407;44.966;19.622;2023-05-31T10:50:20;7.57;;;5.95;;
80101;SDS011;69407;44.966;19.622;2023-05-31T10:53:08;9.38;;;6.13;;
80101;SDS011;69407;44.966;19.622;2023-05-31T10:55:41;12.27;;;7.05;;
80101;SDS011;69407;44.966;19.622;2023-05-31T10:58:23;8.75;;;6.18;;
80101;SDS011;69407;44.966;19.622;2023-05-31T11:00:57;8.27;;;6.75;;
80101;SDS011;69407;44.966;19.622;2023-05-31T11:03:29;12.82;;;7.75;;
80101;SDS011;69407;44.966;19.622;2023-05-31T11:05:59;10.38;;;6.10;;
80101;SDS011;69407;44.966;19.622;2023-05-31T11:08:31;9.55;;;5.13;;
80101;SDS011;69407;44.966;19.622;2023-05-31T11:14:34;8.70;;;5.43;;
80101;SDS011;69407;44.966;19.622;2023-05-31T11:19:14;9.82;;;5.43;;
80101;SDS011;69407;44.966;19.622;2023-05-31T11:21:47;7.38;;;5.38;;
80101;SDS011;69407;44.966;19.622;2023-05-31T11:26:59;8.65;;;5.57;;
80101;SDS011;69407;44.966;19.622;2023-05-31T11:29:43;11.35;;;5.10;;
80101;SDS011;69407;44.966;19.622;2023-05-31T11:32:17;8.13;;;5.40;;
80101;SDS011;69407;44.966;19.622;2023-05-31T11:34:52;10.63;;;5.55;;
80101;SDS011;69407;44.966;19.622;2023-05-31T11:37:19;7.30;;;4.70;;
80101;SDS011;69407;44.966;19.622;2023-05-31T11:39:48;8.75;;;5.22;;
80101;SDS011;69407;44.966;19.622;2023-05-31T11:42:15;7.68;;;5.50;;
80101;SDS011;69407;44.966;19.622;2023-05-31T11:44:44;8.05;;;5.15;;
80101;SDS011;69407;44.966;19.622;2023-05-31T11:47:16;8.18;;;5.25;;
80101;SDS011;69407;44.966;19.622;2023-05-31T11:49:44;6.80;;;5.03;;
80101;SDS011;69407;44.966;19.622;2023-05-31T11:52:14;9.27;;;5.18;;
80101;SDS011;69407;44.966;19.622;2023-05-31T11:54:42;8.10;;;5.03;;
80101;SDS011;69407;44.966;19.622;2023-05-31T11:57:09;5.93;;;4.13;;
80101;SDS011;69407;44.966;19.622;2023-05-31T11:59:35;7.70;;;5.30;;
80101;SDS011;69407;44.966;19.622;2023-05-31T12:02:06;7.82;;;4.38;;
80101;SDS011;69407;44.966;19.622;2023-05-31T12:07:03;7.72;;;4.80;;
80101;SDS011;69407;44.966;19.622;2023-05-31T12:09:34;8.80;;;4.63;;
80101;SDS011;69407;44.966;19.622;2023-05-31T12:12:00;6.55;;;5.10;;
80101;SDS011;69407;44.966;19.622;2023-05-31T12:14:28;6.57;;;4.38;;
80101;SDS011;69407;44.966;19.622;2023-05-31T12:16:54;8.57;;;4.82;;
80101;SDS011;69407;44.966;19.622;2023-05-31T12:19:20;7.78;;;4.68;;
80101;SDS011;69407;44.966;19.622;2023-05-31T12:21:46;8.40;;;5.30;;
80101;SDS011;69407;44.966;19.622;2023-05-31T12:24:13;8.10;;;4.97;;
80101;SDS011;69407;44.966;19.622;2023-05-31T12:26:44;8.45;;;4.82;;
80101;SDS011;69407;44.966;19.622;2023-05-31T12:29:11;9.52;;;5.45;;
80101;SDS011;69407;44.966;19.622;2023-05-31T12:31:37;8.60;;;4.95;;
80101;SDS011;69407;44.966;19.622;2023-05-31T12:36:36;6.97;;;4.72;;
80101;SDS011;69407;44.966;19.622;2023-05-31T12:39:02;8.30;;;4.30;;
80101;SDS011;69407;44.966;19.622;2023-05-31T12:41:33;7.05;;;4.65;;
80101;SDS011;69407;44.966;19.622;2023-05-31T12:43:59;11.40;;;5.60;;
80101;SDS011;69407;44.966;19.622;2023-05-31T12:46:24;8.13;;;5.32;;
80101;SDS011;69407;44.966;19.622;2023-05-31T12:48:50;7.40;;;4.60;;
80101;SDS011;69407;44.966;19.622;2023-05-31T12:51:22;8.65;;;4.88;;
80101;SDS011;69407;44.966;19.622;2023-05-31T12:53:47;6.25;;;4.65;;
80101;SDS011;69407;44.966;19.622;2023-05-31T12:56:13;7.60;;;4.68;;
80101;SDS011;69407;44.966;19.622;2023-05-31T12:58:39;7.75;;;4.35;;
80101;SDS011;69407;44.966;19.622;2023-05-31T13:01:05;8.32;;;4.63;;
80101;SDS011;69407;44.966;19.622;2023-05-31T13:03:32;6.53;;;4.78;;
80101;SDS011;69407;44.966;19.622;2023-05-31T13:05:58;5.60;;;4.55;;
80101;SDS011;69407;44.966;19.622;2023-05-31T13:08:23;7.35;;;4.22;;
80101;SDS011;69407;44.966;19.622;2023-05-31T13:10:49;7.43;;;4.90;;
80101;SDS011;69407;44.966;19.622;2023-05-31T13:13:14;8.35;;;4.88;;
80101;SDS011;69407;44.966;19.622;2023-05-31T13:15:40;6.30;;;4.63;;
80101;SDS011;69407;44.966;19.622;2023-05-31T13:18:06;8.90;;;5.35;;
80101;SDS011;69407;44.966;19.622;2023-05-31T13:20:32;9.35;;;4.35;;
80101;SDS011;69407;44.966;19.622;2023-05-31T13:22:57;9.55;;;4.57;;
80101;SDS011;69407;44.966;19.622;2023-05-31T13:25:23;6.20;;;4.43;;
80101;SDS011;69407;44.966;19.622;2023-05-31T13:27:49;7.40;;;4.55;;
80101;SDS011;69407;44.966;19.622;2023-05-31T13:30:14;7.43;;;4.97;;
80101;SDS011;69407;44.966;19.622;2023-05-31T13:32:40;10.15;;;4.38;;
80101;SDS011;69407;44.966;19.622;2023-05-31T13:35:06;6.88;;;4.38;;
80101;SDS011;69407;44.966;19.622;2023-05-31T13:37:33;9.63;;;5.00;;
80101;SDS011;69407;44.966;19.622;2023-05-31T13:39:59;11.98;;;4.82;;
80101;SDS011;69407;44.966;19.622;2023-05-31T13:42:25;6.70;;;4.72;;
80101;SDS011;69407;44.966;19.622;2023-05-31T13:44:51;7.90;;;4.60;;
80101;SDS011;69407;44.966;19.622;2023-05-31T13:47:17;8.85;;;5.03;;
80101;SDS011;69407;44.966;19.622;2023-05-31T13:49:42;7.50;;;4.18;;
80101;SDS011;69407;44.966;19.622;2023-05-31T13:52:08;7.93;;;4.85;;
80101;SDS011;69407;44.966;19.622;2023-05-31T13:54:35;10.15;;;5.82;;
80101;SDS011;69407;44.966;19.622;2023-05-31T13:57:00;7.40;;;4.72;;
80101;SDS011;69407;44.966;19.622;2023-05-31T13:59:26;7.85;;;5.22;;
80101;SDS011;69407;44.966;19.622;2023-05-31T14:01:52;7.40;;;4.47;;
80101;SDS011;69407;44.966;19.622;2023-05-31T14:04:18;7.88;;;4.57;;
80101;SDS011;69407;44.966;19.622;2023-05-31T14:06:43;8.20;;;4.72;;
80101;SDS011;69407;44.966;19.622;2023-05-31T14:09:10;8.48;;;4.97;;
80101;SDS011;69407;44.966;19.622;2023-05-31T14:11:36;8.63;;;5.32;;
80101;SDS011;69407;44.966;19.622;2023-05-31T14:14:01;7.20;;;4.85;;
80101;SDS011;69407;44.966;19.622;2023-05-31T14:16:27;8.50;;;5.53;;
80101;SDS011;69407;44.966;19.622;2023-05-31T14:18:53;6.63;;;4.65;;
80101;SDS011;69407;44.966;19.622;2023-05-31T14:21:19;8.90;;;4.72;;
80101;SDS011;69407;44.966;19.622;2023-05-31T14:23:45;8.85;;;4.95;;
80101;SDS011;69407;44.966;19.622;2023-05-31T14:26:10;8.70;;;5.60;;
80101;SDS011;69407;44.966;19.622;2023-05-31T14:28:36;11.63;;;5.22;;
80101;SDS011;69407;44.966;19.622;2023-05-31T14:31:01;12.02;;;5.65;;
80101;SDS011;69407;44.966;19.622;2023-05-31T14:33:27;8.10;;;4.90;;
80101;SDS011;69407;44.966;19.622;2023-05-31T14:35:53;9.20;;;5.32;;
80101;SDS011;69407;44.966;19.622;2023-05-31T14:38:18;8.38;;;5.93;;
80101;SDS011;69407;44.966;19.622;2023-05-31T14:40:44;8.73;;;4.82;;
80101;SDS011;69407;44.966;19.622;2023-05-31T14:43:10;7.60;;;4.88;;
80101;SDS011;69407;44.966;19.622;2023-05-31T14:45:35;9.52;;;5.78;;
80101;SDS011;69407;44.966;19.622;2023-05-31T14:48:01;6.55;;;4.88;;
80101;SDS011;69407;44.966;19.622;2023-05-31T14:50:26;8.02;;;5.65;;
80101;SDS011;69407;44.966;19.622;2023-05-31T14:52:52;9.38;;;5.15;;
80101;SDS011;69407;44.966;19.622;2023-05-31T14:55:18;8.30;;;5.10;;
80101;SDS011;69407;44.966;19.622;2023-05-31T14:57:43;10.77;;;5.53;;
80101;SDS011;69407;44.966;19.622;2023-05-31T15:00:09;7.38;;;5.50;;
80101;SDS011;69407;44.966;19.622;2023-05-31T15:02:35;13.57;;;7.28;;
80101;SDS011;69407;44.966;19.622;2023-05-31T15:05:00;13.32;;;7.55;;